sensor_id;sensor_type;location;lat;lon;timestamp;P1;durP1;ratioP1;P2;durP2;ratioP2
32780;SDS011;19136;47.032;15.502;2023-07-31T00:00:28;12.90;;;2.10;;
32780;SDS011;19136;47.032;15.502;2023-07-31T00:02:54;4.88;;;2.15;;
32780;SDS011;19136;47.032;15.502;2023-07-31T00:05:20;11.98;;;2.17;;
32780;SDS011;19136;47.032;15.502;2023-07-31T00:07:46;15.90;;;2.95;;
32780;SDS011;19136;47.032;15.502;2023-07-31T00:10:12;5.88;;;2.10;;
32780;SDS011;19136;47.032;15.502;2023-07-31T00:12:38;13.85;;;1.92;;
32780;SDS011;19136;47.032;15.502;2023-07-31T00:15:06;9.40;;;1.90;;
32780;SDS011;19136;47.032;15.502;2023-07-31T00:17:32;6.40;;;2.47;;
32780;SDS011;19136;47.032;15.502;2023-07-31T00:19:59;6.00;;;2.13;;
32780;SDS011;19136;47.032;15.502;2023-07-31T00:22:24;12.18;;;2.58;;
32780;SDS011;19136;47.032;15.502;2023-07-31T00:24:52;9.77;;;2.20;;
32780;SDS011;19136;47.032;15.502;2023-07-31T00:27:18;6.47;;;2.25;;
32780;SDS011;19136;47.032;15.502;2023-07-31T00:29:43;8.30;;;2.05;;
32780;SDS011;19136;47.032;15.502;2023-07-31T00:32:09;6.60;;;2.65;;
32780;SDS011;19136;47.032;15.502;2023-07-31T00:34:36;4.72;;;2.28;;
32780;SDS011;19136;47.032;15.502;2023-07-31T00:37:02;9.13;;;2.28;;
32780;SDS011;19136;47.032;15.502;2023-07-31T00:39:29;7.70;;;2.40;;
32780;SDS011;19136;47.032;15.502;2023-07-31T00:41:56;6.97;;;2.20;;
32780;SDS011;19136;47.032;15.502;2023-07-31T00:44:22;3.45;;;2.20;;
32780;SDS011;19136;47.032;15.502;2023-07-31T00:46:48;11.40;;;2.10;;
32780;SDS011;19136;47.032;15.502;2023-07-31T00:49:14;6.40;;;2.35;;
32780;SDS011;19136;47.032;15.502;2023-07-31T00:51:41;5.78;;;2.30;;
32780;SDS011;19136;47.032;15.502;2023-07-31T00:54:07;8.25;;;2.55;;
32780;SDS011;19136;47.032;15.502;2023-07-31T00:56:33;10.95;;;2.30;;
32780;SDS011;19136;47.032;15.502;2023-07-31T00:59:00;4.47;;;2.03;;
32780;SDS011;19136;47.032;15.502;2023-07-31T01:01:26;6.53;;;2.17;;
32780;SDS011;19136;47.032;15.502;2023-07-31T01:03:52;4.70;;;3.05;;
32780;SDS011;19136;47.032;15.502;2023-07-31T01:11:27;4.38;;;2.60;;
32780;SDS011;19136;47.032;15.502;2023-07-31T01:13:55;9.45;;;2.42;;
32780;SDS011;19136;47.032;15.502;2023-07-31T01:16:21;4.72;;;2.45;;
32780;SDS011;19136;47.032;15.502;2023-07-31T01:18:46;11.18;;;2.20;;
32780;SDS011;19136;47.032;15.502;2023-07-31T01:21:30;5.65;;;2.20;;
32780;SDS011;19136;47.032;15.502;2023-07-31T01:24:22;5.13;;;2.30;;
32780;SDS011;19136;47.032;15.502;2023-07-31T01:29:36;8.55;;;2.40;;
32780;SDS011;19136;47.032;15.502;2023-07-31T01:32:06;5.80;;;2.27;;
32780;SDS011;19136;47.032;15.502;2023-07-31T01:34:32;12.10;;;2.30;;
32780;SDS011;19136;47.032;15.502;2023-07-31T01:36:59;6.47;;;1.95;;
32780;SDS011;19136;47.032;15.502;2023-07-31T01:39:25;9.13;;;2.47;;
32780;SDS011;19136;47.032;15.502;2023-07-31T01:41:51;5.85;;;1.85;;
32780;SDS011;19136;47.032;15.502;2023-07-31T01:44:17;9.38;;;2.30;;
32780;SDS011;19136;47.032;15.502;2023-07-31T01:46:42;6.75;;;2.28;;
32780;SDS011;19136;47.032;15.502;2023-07-31T01:49:08;5.00;;;2.30;;
32780;SDS011;19136;47.032;15.502;2023-07-31T01:51:34;7.20;;;2.25;;
32780;SDS011;19136;47.032;15.502;2023-07-31T01:54:00;11.25;;;2.72;;
32780;SDS011;19136;47.032;15.502;2023-07-31T01:56:26;7.68;;;2.20;;
32780;SDS011;19136;47.032;15.502;2023-07-31T01:58:52;9.18;;;2.35;;
32780;SDS011;19136;47.032;15.502;2023-07-31T02:01:18;8.80;;;2.20;;
32780;SDS011;19136;47.032;15.502;2023-07-31T02:03:44;5.78;;;2.13;;
32780;SDS011;19136;47.032;15.502;2023-07-31T02:06:10;6.03;;;2.33;;
32780;SDS011;19136;47.032;15.502;2023-07-31T02:08:36;11.27;;;2.58;;
32780;SDS011;19136;47.032;15.502;2023-07-31T02:11:01;8.68;;;2.28;;
32780;SDS011;19136;47.032;15.502;2023-07-31T02:13:27;38.00;;;5.10;;
32780;SDS011;19136;47.032;15.502;2023-07-31T02:15:53;7.32;;;2.42;;
32780;SDS011;19136;47.032;15.502;2023-07-31T02:18:19;8.50;;;2.13;;
32780;SDS011;19136;47.032;15.502;2023-07-31T02:20:49;9.52;;;2.88;;
32780;SDS011;19136;47.032;15.502;2023-07-31T02:23:17;5.00;;;2.28;;
32780;SDS011;19136;47.032;15.502;2023-07-31T02:25:44;12.85;;;2.63;;
32780;SDS011;19136;47.032;15.502;2023-07-31T02:28:10;5.93;;;2.00;;
32780;SDS011;19136;47.032;15.502;2023-07-31T02:30:36;9.40;;;2.85;;
32780;SDS011;19136;47.032;15.502;2023-07-31T02:33:05;13.00;;;2.40;;
32780;SDS011;19136;47.032;15.502;2023-07-31T02:35:30;9.15;;;2.55;;
32780;SDS011;19136;47.032;15.502;2023-07-31T02:37:56;9.30;;;2.53;;
32780;SDS011;19136;47.032;15.502;2023-07-31T02:40:22;5.38;;;2.50;;
32780;SDS011;19136;47.032;15.502;2023-07-31T02:42:48;8.60;;;2.40;;
32780;SDS011;19136;47.032;15.502;2023-07-31T02:45:14;8.43;;;2.65;;
32780;SDS011;19136;47.032;15.502;2023-07-31T02:47:40;5.70;;;2.40;;
32780;SDS011;19136;47.032;15.502;2023-07-31T02:50:06;11.27;;;2.67;;
32780;SDS011;19136;47.032;15.502;2023-07-31T02:52:32;9.57;;;2.45;;
32780;SDS011;19136;47.032;15.502;2023-07-31T02:54:58;10.35;;;2.35;;
32780;SDS011;19136;47.032;15.502;2023-07-31T02:57:24;5.82;;;2.28;;
32780;SDS011;19136;47.032;15.502;2023-07-31T02:59:49;13.07;;;2.22;;
32780;SDS011;19136;47.032;15.502;2023-07-31T03:02:17;9.93;;;2.58;;
32780;SDS011;19136;47.032;15.502;2023-07-31T03:04:43;12.57;;;2.90;;
32780;SDS011;19136;47.032;15.502;2023-07-31T03:07:09;7.07;;;2.45;;
32780;SDS011;19136;47.032;15.502;2023-07-31T03:09:35;8.02;;;2.50;;
32780;SDS011;19136;47.032;15.502;2023-07-31T03:12:00;6.03;;;2.67;;
32780;SDS011;19136;47.032;15.502;2023-07-31T03:14:27;8.60;;;2.50;;
32780;SDS011;19136;47.032;15.502;2023-07-31T03:16:53;4.38;;;2.10;;
32780;SDS011;19136;47.032;15.502;2023-07-31T03:19:19;6.75;;;2.15;;
32780;SDS011;19136;47.032;15.502;2023-07-31T03:21:44;7.35;;;2.70;;
32780;SDS011;19136;47.032;15.502;2023-07-31T03:24:10;6.03;;;2.80;;
32780;SDS011;19136;47.032;15.502;2023-07-31T03:26:37;6.57;;;2.15;;
32780;SDS011;19136;47.032;15.502;2023-07-31T03:29:06;7.25;;;2.25;;
32780;SDS011;19136;47.032;15.502;2023-07-31T03:31:33;9.30;;;2.63;;
32780;SDS011;19136;47.032;15.502;2023-07-31T03:33:59;13.73;;;3.08;;
32780;SDS011;19136;47.032;15.502;2023-07-31T03:36:26;10.13;;;2.65;;
32780;SDS011;19136;47.032;15.502;2023-07-31T03:38:53;12.63;;;2.85;;
32780;SDS011;19136;47.032;15.502;2023-07-31T03:41:19;11.93;;;2.28;;
32780;SDS011;19136;47.032;15.502;2023-07-31T03:43:49;8.57;;;2.67;;
32780;SDS011;19136;47.032;15.502;2023-07-31T03:46:18;7.65;;;2.83;;
32780;SDS011;19136;47.032;15.502;2023-07-31T03:48:43;11.88;;;2.70;;
32780;SDS011;19136;47.032;15.502;2023-07-31T03:51:09;8.77;;;3.22;;
32780;SDS011;19136;47.032;15.502;2023-07-31T03:53:35;8.90;;;2.90;;
32780;SDS011;19136;47.032;15.502;2023-07-31T03:56:01;4.85;;;2.22;;
32780;SDS011;19136;47.032;15.502;2023-07-31T03:58:27;8.98;;;2.22;;
32780;SDS011;19136;47.032;15.502;2023-07-31T04:00:53;6.28;;;2.55;;
32780;SDS011;19136;47.032;15.502;2023-07-31T04:03:18;7.25;;;2.10;;
32780;SDS011;19136;47.032;15.502;2023-07-31T04:05:44;7.97;;;2.45;;
32780;SDS011;19136;47.032;15.502;2023-07-31T04:08:10;10.68;;;2.80;;
32780;SDS011;19136;47.032;15.502;2023-07-31T04:10:35;10.07;;;2.35;;
32780;SDS011;19136;47.032;15.502;2023-07-31T04:13:01;8.13;;;2.95;;
32780;SDS011;19136;47.032;15.502;2023-07-31T04:15:27;9.80;;;2.70;;
32780;SDS011;19136;47.032;15.502;2023-07-31T04:17:55;7.53;;;2.80;;
32780;SDS011;19136;47.032;15.502;2023-07-31T04:20:21;5.93;;;3.13;;
32780;SDS011;19136;47.032;15.502;2023-07-31T04:22:47;15.10;;;2.88;;
32780;SDS011;19136;47.032;15.502;2023-07-31T04:25:13;5.40;;;2.30;;
32780;SDS011;19136;47.032;15.502;2023-07-31T04:27:39;7.35;;;2.58;;
32780;SDS011;19136;47.032;15.502;2023-07-31T04:30:05;5.70;;;2.13;;
32780;SDS011;19136;47.032;15.502;2023-07-31T04:32:33;5.43;;;2.13;;
32780;SDS011;19136;47.032;15.502;2023-07-31T04:35:00;10.25;;;2.83;;
32780;SDS011;19136;47.032;15.502;2023-07-31T04:37:26;5.93;;;2.60;;
32780;SDS011;19136;47.032;15.502;2023-07-31T04:39:52;12.82;;;4.47;;
32780;SDS011;19136;47.032;15.502;2023-07-31T04:42:18;13.45;;;3.90;;
32780;SDS011;19136;47.032;15.502;2023-07-31T04:44:43;15.30;;;3.40;;
32780;SDS011;19136;47.032;15.502;2023-07-31T04:47:09;9.75;;;3.22;;
32780;SDS011;19136;47.032;15.502;2023-07-31T04:49:35;13.38;;;3.40;;
32780;SDS011;19136;47.032;15.502;2023-07-31T04:52:00;7.07;;;2.85;;
32780;SDS011;19136;47.032;15.502;2023-07-31T04:54:26;11.95;;;2.80;;
32780;SDS011;19136;47.032;15.502;2023-07-31T04:56:52;12.07;;;3.05;;
32780;SDS011;19136;47.032;15.502;2023-07-31T04:59:18;8.65;;;2.88;;
32780;SDS011;19136;47.032;15.502;2023-07-31T05:01:43;6.25;;;2.80;;
32780;SDS011;19136;47.032;15.502;2023-07-31T05:04:12;3.78;;;2.22;;
32780;SDS011;19136;47.032;15.502;2023-07-31T05:06:39;6.95;;;2.22;;
32780;SDS011;19136;47.032;15.502;2023-07-31T05:09:05;6.85;;;2.50;;
32780;SDS011;19136;47.032;15.502;2023-07-31T05:11:33;3.13;;;2.60;;
32780;SDS011;19136;47.032;15.502;2023-07-31T05:14:01;3.60;;;1.85;;
32780;SDS011;19136;47.032;15.502;2023-07-31T05:16:27;3.58;;;2.15;;
32780;SDS011;19136;47.032;15.502;2023-07-31T05:18:52;2.90;;;2.10;;
32780;SDS011;19136;47.032;15.502;2023-07-31T05:21:18;2.78;;;2.15;;
32780;SDS011;19136;47.032;15.502;2023-07-31T05:23:44;10.35;;;2.38;;
32780;SDS011;19136;47.032;15.502;2023-07-31T05:26:09;3.90;;;2.38;;
32780;SDS011;19136;47.032;15.502;2023-07-31T05:28:37;7.90;;;2.88;;
32780;SDS011;19136;47.032;15.502;2023-07-31T05:31:04;9.15;;;3.00;;
32780;SDS011;19136;47.032;15.502;2023-07-31T05:33:30;5.47;;;3.00;;
32780;SDS011;19136;47.032;15.502;2023-07-31T05:35:56;5.10;;;3.20;;
32780;SDS011;19136;47.032;15.502;2023-07-31T05:38:22;11.40;;;3.72;;
32780;SDS011;19136;47.032;15.502;2023-07-31T05:40:49;9.32;;;4.18;;
32780;SDS011;19136;47.032;15.502;2023-07-31T05:43:16;7.35;;;3.42;;
32780;SDS011;19136;47.032;15.502;2023-07-31T05:45:42;14.00;;;4.65;;
32780;SDS011;19136;47.032;15.502;2023-07-31T05:48:09;6.50;;;4.55;;
32780;SDS011;19136;47.032;15.502;2023-07-31T05:50:35;9.30;;;4.57;;
32780;SDS011;19136;47.032;15.502;2023-07-31T05:53:02;8.82;;;4.65;;
32780;SDS011;19136;47.032;15.502;2023-07-31T05:55:28;8.70;;;4.93;;
32780;SDS011;19136;47.032;15.502;2023-07-31T05:57:55;12.35;;;4.75;;
32780;SDS011;19136;47.032;15.502;2023-07-31T06:00:24;6.43;;;3.58;;
32780;SDS011;19136;47.032;15.502;2023-07-31T06:02:54;11.55;;;4.78;;
32780;SDS011;19136;47.032;15.502;2023-07-31T06:05:20;7.70;;;3.65;;
32780;SDS011;19136;47.032;15.502;2023-07-31T06:07:46;7.43;;;3.42;;
32780;SDS011;19136;47.032;15.502;2023-07-31T06:10:11;7.82;;;3.33;;
32780;SDS011;19136;47.032;15.502;2023-07-31T06:12:38;6.18;;;3.47;;
32780;SDS011;19136;47.032;15.502;2023-07-31T06:15:04;6.90;;;3.42;;
32780;SDS011;19136;47.032;15.502;2023-07-31T06:17:31;5.40;;;2.80;;
32780;SDS011;19136;47.032;15.502;2023-07-31T06:19:56;9.13;;;3.22;;
32780;SDS011;19136;47.032;15.502;2023-07-31T06:22:22;5.65;;;3.22;;
32780;SDS011;19136;47.032;15.502;2023-07-31T06:24:48;7.28;;;3.30;;
32780;SDS011;19136;47.032;15.502;2023-07-31T06:27:13;6.72;;;2.90;;
32780;SDS011;19136;47.032;15.502;2023-07-31T06:29:39;6.55;;;3.03;;
32780;SDS011;19136;47.032;15.502;2023-07-31T06:32:05;6.80;;;2.83;;
32780;SDS011;19136;47.032;15.502;2023-07-31T06:34:31;3.83;;;2.70;;
32780;SDS011;19136;47.032;15.502;2023-07-31T06:36:56;6.40;;;2.85;;
32780;SDS011;19136;47.032;15.502;2023-07-31T06:39:22;6.38;;;2.13;;
32780;SDS011;19136;47.032;15.502;2023-07-31T06:41:53;5.57;;;2.50;;
32780;SDS011;19136;47.032;15.502;2023-07-31T06:44:20;10.63;;;3.22;;
32780;SDS011;19136;47.032;15.502;2023-07-31T06:46:47;5.40;;;2.70;;
32780;SDS011;19136;47.032;15.502;2023-07-31T06:49:14;4.05;;;2.63;;
32780;SDS011;19136;47.032;15.502;2023-07-31T06:51:41;5.63;;;2.40;;
32780;SDS011;19136;47.032;15.502;2023-07-31T06:54:09;4.18;;;2.20;;
32780;SDS011;19136;47.032;15.502;2023-07-31T06:56:35;4.55;;;2.55;;
32780;SDS011;19136;47.032;15.502;2023-07-31T06:59:01;6.97;;;2.50;;
32780;SDS011;19136;47.032;15.502;2023-07-31T07:01:26;7.40;;;2.35;;
32780;SDS011;19136;47.032;15.502;2023-07-31T07:03:53;5.68;;;2.40;;
32780;SDS011;19136;47.032;15.502;2023-07-31T07:06:19;3.55;;;2.45;;
32780;SDS011;19136;47.032;15.502;2023-07-31T07:08:45;4.20;;;2.05;;
32780;SDS011;19136;47.032;15.502;2023-07-31T07:11:11;4.43;;;2.40;;
32780;SDS011;19136;47.032;15.502;2023-07-31T07:13:37;9.48;;;2.40;;
32780;SDS011;19136;47.032;15.502;2023-07-31T07:16:02;5.35;;;2.45;;
32780;SDS011;19136;47.032;15.502;2023-07-31T07:18:28;5.90;;;2.25;;
32780;SDS011;19136;47.032;15.502;2023-07-31T07:20:55;4.53;;;2.28;;
32780;SDS011;19136;47.032;15.502;2023-07-31T07:23:22;4.95;;;2.20;;
32780;SDS011;19136;47.032;15.502;2023-07-31T07:25:48;3.40;;;2.10;;
32780;SDS011;19136;47.032;15.502;2023-07-31T07:28:14;2.78;;;2.20;;
32780;SDS011;19136;47.032;15.502;2023-07-31T07:30:39;4.43;;;2.20;;
32780;SDS011;19136;47.032;15.502;2023-07-31T07:33:05;3.92;;;2.03;;
32780;SDS011;19136;47.032;15.502;2023-07-31T07:35:34;4.68;;;2.10;;
32780;SDS011;19136;47.032;15.502;2023-07-31T07:38:01;5.07;;;2.25;;
32780;SDS011;19136;47.032;15.502;2023-07-31T07:40:28;2.97;;;2.10;;
32780;SDS011;19136;47.032;15.502;2023-07-31T07:42:54;5.07;;;2.17;;
32780;SDS011;19136;47.032;15.502;2023-07-31T07:45:19;6.38;;;2.33;;
32780;SDS011;19136;47.032;15.502;2023-07-31T07:47:45;5.00;;;2.58;;
32780;SDS011;19136;47.032;15.502;2023-07-31T07:50:11;3.90;;;1.92;;
32780;SDS011;19136;47.032;15.502;2023-07-31T07:52:36;4.20;;;2.40;;
32780;SDS011;19136;47.032;15.502;2023-07-31T07:55:02;4.10;;;2.10;;
32780;SDS011;19136;47.032;15.502;2023-07-31T07:57:28;3.08;;;1.98;;
32780;SDS011;19136;47.032;15.502;2023-07-31T07:59:54;3.13;;;1.90;;
32780;SDS011;19136;47.032;15.502;2023-07-31T08:02:21;8.98;;;2.10;;
32780;SDS011;19136;47.032;15.502;2023-07-31T08:04:47;5.05;;;1.90;;
32780;SDS011;19136;47.032;15.502;2023-07-31T08:07:13;3.25;;;2.10;;
32780;SDS011;19136;47.032;15.502;2023-07-31T08:09:39;3.35;;;1.80;;
32780;SDS011;19136;47.032;15.502;2023-07-31T08:12:06;4.50;;;1.70;;
32780;SDS011;19136;47.032;15.502;2023-07-31T08:14:32;3.08;;;1.80;;
32780;SDS011;19136;47.032;15.502;2023-07-31T08:16:59;4.97;;;2.00;;
32780;SDS011;19136;47.032;15.502;2023-07-31T08:19:26;6.25;;;2.55;;
32780;SDS011;19136;47.032;15.502;2023-07-31T08:21:52;4.45;;;2.00;;
32780;SDS011;19136;47.032;15.502;2023-07-31T08:24:17;7.63;;;2.13;;
32780;SDS011;19136;47.032;15.502;2023-07-31T08:26:43;5.10;;;2.08;;
32780;SDS011;19136;47.032;15.502;2023-07-31T08:29:09;4.45;;;1.70;;
32780;SDS011;19136;47.032;15.502;2023-07-31T08:31:35;2.75;;;1.80;;
32780;SDS011;19136;47.032;15.502;2023-07-31T08:34:00;5.72;;;2.28;;
32780;SDS011;19136;47.032;15.502;2023-07-31T08:36:26;8.40;;;2.08;;
32780;SDS011;19136;47.032;15.502;2023-07-31T08:38:52;3.03;;;1.73;;
32780;SDS011;19136;47.032;15.502;2023-07-31T08:41:19;4.25;;;2.20;;
32780;SDS011;19136;47.032;15.502;2023-07-31T08:43:48;3.45;;;1.90;;
32780;SDS011;19136;47.032;15.502;2023-07-31T08:46:15;2.40;;;1.70;;
32780;SDS011;19136;47.032;15.502;2023-07-31T08:48:44;8.75;;;2.10;;
32780;SDS011;19136;47.032;15.502;2023-07-31T08:51:10;8.60;;;2.13;;
32780;SDS011;19136;47.032;15.502;2023-07-31T08:53:36;3.33;;;2.13;;
32780;SDS011;19136;47.032;15.502;2023-07-31T08:56:02;2.92;;;1.90;;
32780;SDS011;19136;47.032;15.502;2023-07-31T08:58:31;2.97;;;1.80;;
32780;SDS011;19136;47.032;15.502;2023-07-31T09:00:58;6.32;;;2.05;;
32780;SDS011;19136;47.032;15.502;2023-07-31T09:03:27;6.50;;;2.20;;
32780;SDS011;19136;47.032;15.502;2023-07-31T09:05:53;3.25;;;2.08;;
32780;SDS011;19136;47.032;15.502;2023-07-31T09:08:21;10.00;;;2.00;;
32780;SDS011;19136;47.032;15.502;2023-07-31T09:10:47;7.25;;;2.30;;
32780;SDS011;19136;47.032;15.502;2023-07-31T09:13:15;4.50;;;1.95;;
32780;SDS011;19136;47.032;15.502;2023-07-31T09:15:43;3.88;;;1.90;;
32780;SDS011;19136;47.032;15.502;2023-07-31T09:18:10;6.15;;;2.00;;
32780;SDS011;19136;47.032;15.502;2023-07-31T09:20:36;3.53;;;2.05;;
32780;SDS011;19136;47.032;15.502;2023-07-31T09:25:33;3.72;;;2.28;;
32780;SDS011;19136;47.032;15.502;2023-07-31T09:28:00;3.30;;;1.80;;
32780;SDS011;19136;47.032;15.502;2023-07-31T09:30:27;4.65;;;2.22;;
32780;SDS011;19136;47.032;15.502;2023-07-31T09:33:02;4.70;;;1.95;;
32780;SDS011;19136;47.032;15.502;2023-07-31T09:35:32;5.97;;;2.10;;
32780;SDS011;19136;47.032;15.502;2023-07-31T09:38:05;5.20;;;1.90;;
32780;SDS011;19136;47.032;15.502;2023-07-31T09:40:32;3.83;;;1.80;;
32780;SDS011;19136;47.032;15.502;2023-07-31T09:43:08;6.50;;;2.33;;
32780;SDS011;19136;47.032;15.502;2023-07-31T09:45:39;4.75;;;1.95;;
32780;SDS011;19136;47.032;15.502;2023-07-31T09:48:09;3.50;;;1.90;;
32780;SDS011;19136;47.032;15.502;2023-07-31T09:50:40;3.45;;;1.88;;
32780;SDS011;19136;47.032;15.502;2023-07-31T09:53:07;3.63;;;1.88;;
32780;SDS011;19136;47.032;15.502;2023-07-31T09:55:37;4.50;;;2.10;;
32780;SDS011;19136;47.032;15.502;2023-07-31T09:58:04;7.30;;;1.70;;
32780;SDS011;19136;47.032;15.502;2023-07-31T10:00:34;3.13;;;2.08;;
32780;SDS011;19136;47.032;15.502;2023-07-31T10:03:08;2.88;;;1.75;;
32780;SDS011;19136;47.032;15.502;2023-07-31T10:05:36;6.90;;;2.45;;
32780;SDS011;19136;47.032;15.502;2023-07-31T10:08:06;4.68;;;2.08;;
32780;SDS011;19136;47.032;15.502;2023-07-31T10:10:33;4.03;;;2.10;;
32780;SDS011;19136;47.032;15.502;2023-07-31T10:13:01;4.00;;;1.98;;
32780;SDS011;19136;47.032;15.502;2023-07-31T10:15:27;3.42;;;2.22;;
32780;SDS011;19136;47.032;15.502;2023-07-31T10:17:54;3.72;;;2.03;;
32780;SDS011;19136;47.032;15.502;2023-07-31T10:20:21;3.20;;;1.95;;
32780;SDS011;19136;47.032;15.502;2023-07-31T10:22:46;3.78;;;2.13;;
32780;SDS011;19136;47.032;15.502;2023-07-31T10:25:13;4.80;;;2.10;;
32780;SDS011;19136;47.032;15.502;2023-07-31T10:27:41;3.42;;;1.80;;
32780;SDS011;19136;47.032;15.502;2023-07-31T10:30:08;3.72;;;2.40;;
32780;SDS011;19136;47.032;15.502;2023-07-31T10:32:36;3.45;;;2.38;;
32780;SDS011;19136;47.032;15.502;2023-07-31T10:35:03;3.70;;;2.08;;
32780;SDS011;19136;47.032;15.502;2023-07-31T10:37:36;2.67;;;2.05;;
32780;SDS011;19136;47.032;15.502;2023-07-31T10:40:03;4.10;;;1.83;;
32780;SDS011;19136;47.032;15.502;2023-07-31T10:42:36;3.35;;;2.28;;
32780;SDS011;19136;47.032;15.502;2023-07-31T10:45:08;3.47;;;2.20;;
32780;SDS011;19136;47.032;15.502;2023-07-31T10:47:44;3.08;;;2.17;;
32780;SDS011;19136;47.032;15.502;2023-07-31T10:50:21;2.95;;;2.10;;
32780;SDS011;19136;47.032;15.502;2023-07-31T10:52:53;4.53;;;2.42;;
32780;SDS011;19136;47.032;15.502;2023-07-31T10:55:32;3.42;;;1.95;;
32780;SDS011;19136;47.032;15.502;2023-07-31T10:58:11;3.47;;;1.80;;
32780;SDS011;19136;47.032;15.502;2023-07-31T11:00:41;5.78;;;2.28;;
32780;SDS011;19136;47.032;15.502;2023-07-31T11:03:16;2.60;;;1.85;;
32780;SDS011;19136;47.032;15.502;2023-07-31T11:05:43;4.50;;;2.05;;
32780;SDS011;19136;47.032;15.502;2023-07-31T11:08:25;4.65;;;2.00;;
32780;SDS011;19136;47.032;15.502;2023-07-31T11:13:31;6.30;;;1.85;;
32780;SDS011;19136;47.032;15.502;2023-07-31T11:15:59;4.40;;;2.08;;
32780;SDS011;19136;47.032;15.502;2023-07-31T11:18:26;2.60;;;1.90;;
32780;SDS011;19136;47.032;15.502;2023-07-31T11:20:53;3.22;;;1.85;;
32780;SDS011;19136;47.032;15.502;2023-07-31T11:23:22;4.20;;;1.90;;
32780;SDS011;19136;47.032;15.502;2023-07-31T11:25:49;4.28;;;2.35;;
32780;SDS011;19136;47.032;15.502;2023-07-31T11:28:16;3.08;;;2.17;;
32780;SDS011;19136;47.032;15.502;2023-07-31T11:30:43;4.72;;;1.88;;
32780;SDS011;19136;47.032;15.502;2023-07-31T11:33:10;4.70;;;2.38;;
32780;SDS011;19136;47.032;15.502;2023-07-31T11:35:44;3.33;;;1.90;;
32780;SDS011;19136;47.032;15.502;2023-07-31T11:38:24;4.38;;;2.15;;
32780;SDS011;19136;47.032;15.502;2023-07-31T11:43:20;3.10;;;1.95;;
32780;SDS011;19136;47.032;15.502;2023-07-31T11:45:48;4.05;;;1.90;;
32780;SDS011;19136;47.032;15.502;2023-07-31T11:48:21;3.78;;;2.25;;
32780;SDS011;19136;47.032;15.502;2023-07-31T11:51:02;5.35;;;2.05;;
32780;SDS011;19136;47.032;15.502;2023-07-31T11:53:36;4.13;;;2.00;;
32780;SDS011;19136;47.032;15.502;2023-07-31T11:56:06;4.22;;;1.83;;
32780;SDS011;19136;47.032;15.502;2023-07-31T11:58:34;5.05;;;2.05;;
32780;SDS011;19136;47.032;15.502;2023-07-31T12:01:02;4.55;;;1.92;;
32780;SDS011;19136;47.032;15.502;2023-07-31T12:03:28;2.90;;;1.95;;
32780;SDS011;19136;47.032;15.502;2023-07-31T12:05:56;5.35;;;2.10;;
32780;SDS011;19136;47.032;15.502;2023-07-31T12:08:23;3.78;;;2.03;;
32780;SDS011;19136;47.032;15.502;2023-07-31T12:10:50;4.07;;;2.25;;
32780;SDS011;19136;47.032;15.502;2023-07-31T12:13:24;6.75;;;2.00;;
32780;SDS011;19136;47.032;15.502;2023-07-31T12:15:54;3.55;;;2.00;;
32780;SDS011;19136;47.032;15.502;2023-07-31T12:18:25;3.22;;;1.83;;
32780;SDS011;19136;47.032;15.502;2023-07-31T12:20:54;4.10;;;2.20;;
32780;SDS011;19136;47.032;15.502;2023-07-31T12:23:22;2.63;;;1.88;;
32780;SDS011;19136;47.032;15.502;2023-07-31T12:26:02;4.20;;;2.40;;
32780;SDS011;19136;47.032;15.502;2023-07-31T12:28:43;5.53;;;2.20;;
32780;SDS011;19136;47.032;15.502;2023-07-31T12:31:14;3.72;;;2.22;;
32780;SDS011;19136;47.032;15.502;2023-07-31T12:33:42;3.35;;;2.05;;
32780;SDS011;19136;47.032;15.502;2023-07-31T12:36:09;3.58;;;2.28;;
32780;SDS011;19136;47.032;15.502;2023-07-31T12:38:37;2.35;;;1.77;;
32780;SDS011;19136;47.032;15.502;2023-07-31T12:41:03;4.57;;;2.30;;
32780;SDS011;19136;47.032;15.502;2023-07-31T12:43:36;3.92;;;1.95;;
32780;SDS011;19136;47.032;15.502;2023-07-31T12:46:03;7.53;;;2.20;;
32780;SDS011;19136;47.032;15.502;2023-07-31T12:48:34;3.50;;;2.28;;
32780;SDS011;19136;47.032;15.502;2023-07-31T12:51:01;4.03;;;2.30;;
32780;SDS011;19136;47.032;15.502;2023-07-31T12:53:27;4.75;;;2.28;;
32780;SDS011;19136;47.032;15.502;2023-07-31T12:55:53;4.95;;;2.28;;
32780;SDS011;19136;47.032;15.502;2023-07-31T12:58:18;4.85;;;2.53;;
32780;SDS011;19136;47.032;15.502;2023-07-31T13:00:44;3.70;;;1.90;;
32780;SDS011;19136;47.032;15.502;2023-07-31T13:03:10;5.60;;;2.20;;
32780;SDS011;19136;47.032;15.502;2023-07-31T13:05:36;3.35;;;2.33;;
32780;SDS011;19136;47.032;15.502;2023-07-31T13:08:01;3.03;;;2.22;;
32780;SDS011;19136;47.032;15.502;2023-07-31T13:10:27;4.45;;;2.33;;
32780;SDS011;19136;47.032;15.502;2023-07-31T13:12:54;5.55;;;2.13;;
32780;SDS011;19136;47.032;15.502;2023-07-31T13:15:20;3.42;;;1.90;;
32780;SDS011;19136;47.032;15.502;2023-07-31T13:17:46;3.58;;;2.30;;
32780;SDS011;19136;47.032;15.502;2023-07-31T13:20:12;4.20;;;2.08;;
32780;SDS011;19136;47.032;15.502;2023-07-31T13:22:41;9.30;;;2.50;;
32780;SDS011;19136;47.032;15.502;2023-07-31T13:25:07;4.13;;;2.30;;
32780;SDS011;19136;47.032;15.502;2023-07-31T13:27:33;2.90;;;1.98;;
32780;SDS011;19136;47.032;15.502;2023-07-31T13:30:00;2.75;;;2.10;;
32780;SDS011;19136;47.032;15.502;2023-07-31T13:32:25;3.45;;;2.10;;
32780;SDS011;19136;47.032;15.502;2023-07-31T13:34:51;5.80;;;2.45;;
32780;SDS011;19136;47.032;15.502;2023-07-31T13:37:17;4.68;;;2.10;;
32780;SDS011;19136;47.032;15.502;2023-07-31T13:39:43;2.75;;;2.13;;
32780;SDS011;19136;47.032;15.502;2023-07-31T13:42:09;4.57;;;2.08;;
32780;SDS011;19136;47.032;15.502;2023-07-31T13:44:37;5.25;;;2.38;;
32780;SDS011;19136;47.032;15.502;2023-07-31T13:47:04;6.18;;;1.98;;
32780;SDS011;19136;47.032;15.502;2023-07-31T13:49:29;5.10;;;2.13;;
32780;SDS011;19136;47.032;15.502;2023-07-31T13:51:58;3.47;;;2.15;;
32780;SDS011;19136;47.032;15.502;2023-07-31T13:54:27;3.88;;;1.90;;
32780;SDS011;19136;47.032;15.502;2023-07-31T13:56:53;3.05;;;1.77;;
32780;SDS011;19136;47.032;15.502;2023-07-31T13:59:18;3.80;;;2.13;;
32780;SDS011;19136;47.032;15.502;2023-07-31T14:01:44;6.90;;;2.25;;
32780;SDS011;19136;47.032;15.502;2023-07-31T14:04:10;3.38;;;2.10;;
32780;SDS011;19136;47.032;15.502;2023-07-31T14:06:37;2.60;;;1.95;;
32780;SDS011;19136;47.032;15.502;2023-07-31T14:09:02;3.88;;;2.50;;
32780;SDS011;19136;47.032;15.502;2023-07-31T14:11:28;4.57;;;2.58;;
32780;SDS011;19136;47.032;15.502;2023-07-31T14:13:55;4.25;;;2.22;;
32780;SDS011;19136;47.032;15.502;2023-07-31T14:16:21;3.28;;;1.92;;
32780;SDS011;19136;47.032;15.502;2023-07-31T14:18:47;2.30;;;2.03;;
32780;SDS011;19136;47.032;15.502;2023-07-31T14:21:13;4.05;;;2.20;;
32780;SDS011;19136;47.032;15.502;2023-07-31T14:23:40;4.22;;;2.05;;
32780;SDS011;19136;47.032;15.502;2023-07-31T14:26:06;5.38;;;2.20;;
32780;SDS011;19136;47.032;15.502;2023-07-31T14:28:32;4.38;;;2.28;;
32780;SDS011;19136;47.032;15.502;2023-07-31T14:30:57;3.50;;;2.05;;
32780;SDS011;19136;47.032;15.502;2023-07-31T14:33:23;2.83;;;2.10;;
32780;SDS011;19136;47.032;15.502;2023-07-31T14:35:49;3.13;;;2.08;;
32780;SDS011;19136;47.032;15.502;2023-07-31T14:38:14;5.10;;;2.08;;
32780;SDS011;19136;47.032;15.502;2023-07-31T14:40:41;3.95;;;2.22;;
32780;SDS011;19136;47.032;15.502;2023-07-31T14:43:07;5.20;;;2.10;;
32780;SDS011;19136;47.032;15.502;2023-07-31T14:45:33;4.55;;;2.40;;
32780;SDS011;19136;47.032;15.502;2023-07-31T14:47:59;3.30;;;2.13;;